Aviation Digital Data Service (ADDS)

Output produced by METARs form (1221 UTC 08 May 2021)
found at http://aviationweather.gov/metar/data/
 
KARA 081120Z 0812/0912 VRB03KT P6SM FEW250 
     FM081500 17012G20KT P6SM FEW250 
     FM090100 16010KT P6SM SKC